createdAt,value
2023-04-02T00:00:28.105Z,79.35
2023-04-02T00:03:16.219Z,79.43
2023-04-02T00:05:55.147Z,79.40
2023-04-02T00:08:23.732Z,79.20
2023-04-02T00:10:51.484Z,79.31
2023-04-02T00:13:19.145Z,79.35
2023-04-02T00:15:46.830Z,79.49
2023-04-02T00:18:14.605Z,79.59
2023-04-02T00:20:42.335Z,79.57
2023-04-02T00:23:09.997Z,79.35
2023-04-02T00:25:43.078Z,79.31
2023-04-02T00:28:10.850Z,79.37
2023-04-02T00:30:38.513Z,79.38
2023-04-02T00:33:06.427Z,79.48
2023-04-02T00:35:34.497Z,79.58
2023-04-02T00:38:02.522Z,79.53
2023-04-02T00:40:30.186Z,79.53
2023-04-02T00:42:57.845Z,79.14
2023-04-02T00:45:25.516Z,79.17
2023-04-02T00:47:53.318Z,79.42
2023-04-02T00:50:21.141Z,79.29
2023-04-02T00:52:48.802Z,79.37
2023-04-02T00:55:16.473Z,79.29
2023-04-02T00:57:45.279Z,79.39
2023-04-02T01:00:13.327Z,79.19
2023-04-02T01:02:41.667Z,79.28
2023-04-02T01:05:11.514Z,79.52
2023-04-02T01:07:39.581Z,79.44
2023-04-02T01:10:07.763Z,79.66
2023-04-02T01:12:35.738Z,79.86
2023-04-02T01:15:04.005Z,80.08
2023-04-02T01:17:32.725Z,79.88
2023-04-02T01:20:01.171Z,79.29
2023-04-02T01:22:35.338Z,79.53
2023-04-02T01:25:04.564Z,79.36
2023-04-02T01:27:32.238Z,79.35
2023-04-02T01:30:00.003Z,79.47
2023-04-02T01:32:27.847Z,79.60
2023-04-02T01:34:55.643Z,79.38
2023-04-02T01:37:23.517Z,79.18
2023-04-02T01:39:51.471Z,79.11
2023-04-02T01:42:19.233Z,79.27
2023-04-02T01:44:46.996Z,79.25
2023-04-02T01:47:14.660Z,79.51
2023-04-02T01:49:42.837Z,79.58
2023-04-02T01:52:10.496Z,79.47
2023-04-02T01:54:38.258Z,79.45
2023-04-02T01:57:06.195Z,79.43
2023-04-02T01:59:33.904Z,79.70
2023-04-02T02:02:01.717Z,79.89
2023-04-02T02:04:29.618Z,79.97
2023-04-02T02:06:58.931Z,79.58
2023-04-02T02:09:26.786Z,79.55
2023-04-02T02:11:54.449Z,79.35
2023-04-02T02:14:22.236Z,79.30
2023-04-02T02:16:50.024Z,79.47
2023-04-02T02:19:17.954Z,79.52
2023-04-02T02:21:45.813Z,79.51
2023-04-02T02:24:13.476Z,79.41
2023-04-02T02:26:41.448Z,79.18
2023-04-02T02:29:09.106Z,79.46
2023-04-02T02:31:37.112Z,79.03
2023-04-02T02:34:05.052Z,79.33
2023-04-02T02:36:33.726Z,78.90
2023-04-02T02:39:01.510Z,79.16
2023-04-02T02:41:29.156Z,79.37
2023-04-02T02:43:56.821Z,79.42
2023-04-02T02:46:24.511Z,79.34
2023-04-02T02:48:52.342Z,79.42
2023-04-02T02:51:20.015Z,79.04
2023-04-02T02:53:47.767Z,79.22
2023-04-02T02:56:15.741Z,79.39
2023-04-02T02:58:43.397Z,79.38
2023-04-02T03:01:11.711Z,79.12
2023-04-02T03:03:40.657Z,79.06
2023-04-02T03:06:09.250Z,79.08
2023-04-02T03:08:37.321Z,79.01
2023-04-02T03:11:04.982Z,78.77
2023-04-02T03:13:35.740Z,79.01
2023-04-02T03:16:03.833Z,78.96
2023-04-02T03:18:31.659Z,79.21
2023-04-02T03:20:59.315Z,79.24
2023-04-02T03:23:26.975Z,79.35
2023-04-02T03:25:54.645Z,79.16
2023-04-02T03:28:22.301Z,78.84
2023-04-02T03:30:50.066Z,78.78
2023-04-02T03:33:17.739Z,78.83
2023-04-02T03:35:45.522Z,78.79
2023-04-02T03:38:13.256Z,78.94
2023-04-02T03:40:41.031Z,78.56
2023-04-02T03:43:08.890Z,78.58
2023-04-02T03:45:37.307Z,78.41
2023-04-02T03:48:05.203Z,77.87
2023-04-02T03:50:33.017Z,77.95
2023-04-02T03:53:00.765Z,77.86
2023-04-02T03:55:29.052Z,77.90
2023-04-02T03:57:56.701Z,77.57
2023-04-02T04:00:24.379Z,77.82
2023-04-02T04:02:53.501Z,77.86
2023-04-02T04:05:21.323Z,77.64
2023-04-02T04:07:49.293Z,77.66
2023-04-02T04:10:17.056Z,77.24
2023-04-02T04:12:44.721Z,77.22
2023-04-02T04:15:12.380Z,77.19
2023-04-02T04:17:40.053Z,77.30
2023-04-02T04:20:08.729Z,77.26
2023-04-02T04:22:36.421Z,77.08
2023-04-02T04:25:04.157Z,77.10
2023-04-02T04:27:34.895Z,76.95
2023-04-02T04:30:06.123Z,76.73
2023-04-02T04:32:34.274Z,76.49
2023-04-02T04:35:03.225Z,76.42
2023-04-02T04:37:33.843Z,76.83
2023-04-02T04:40:01.697Z,77.04
2023-04-02T04:42:29.485Z,77.29
2023-04-02T04:44:57.223Z,76.91
2023-04-02T04:47:25.218Z,76.86
2023-04-02T04:49:53.477Z,77.22
2023-04-02T04:52:21.233Z,76.76
2023-04-02T04:54:48.899Z,76.55
2023-04-02T04:57:16.536Z,76.64
2023-04-02T04:59:44.543Z,76.67
2023-04-02T05:02:12.185Z,76.88
2023-04-02T05:04:40.446Z,77.06
2023-04-02T05:07:08.494Z,76.93
2023-04-02T05:09:36.398Z,77.02
2023-04-02T05:12:04.276Z,77.13
2023-04-02T05:14:32.134Z,76.90
2023-04-02T05:16:59.797Z,76.89
2023-04-02T05:19:27.486Z,76.74
2023-04-02T05:21:55.218Z,76.49
2023-04-02T05:24:22.879Z,76.66
2023-04-02T05:26:50.747Z,76.36
2023-04-02T05:29:18.409Z,76.58
2023-04-02T05:31:46.804Z,76.83
2023-04-02T05:34:14.883Z,76.66
2023-04-02T05:36:42.730Z,76.18
2023-04-02T05:39:10.388Z,76.11
2023-04-02T05:41:38.580Z,76.40
2023-04-02T05:44:06.328Z,76.16
2023-04-02T05:46:34.201Z,75.86
2023-04-02T05:49:02.062Z,76.07
2023-04-02T05:51:29.729Z,75.80
2023-04-02T05:53:57.394Z,76.15
2023-04-02T05:56:25.064Z,76.16
2023-04-02T05:58:54.969Z,75.84
2023-04-02T06:01:25.323Z,75.47
2023-04-02T06:03:53.079Z,75.69
2023-04-02T06:06:21.128Z,75.54
2023-04-02T06:08:48.881Z,75.60
2023-04-02T06:11:16.490Z,75.58
2023-04-02T06:13:44.211Z,75.86
2023-04-02T06:16:12.002Z,75.54
2023-04-02T06:18:39.734Z,75.23
2023-04-02T06:21:07.496Z,75.54
2023-04-02T06:23:37.592Z,75.54
2023-04-02T06:26:08.866Z,75.75
2023-04-02T06:28:36.524Z,75.17
2023-04-02T06:31:04.336Z,74.82
2023-04-02T06:33:32.055Z,75.16
2023-04-02T06:35:59.979Z,75.36
2023-04-02T06:38:27.786Z,75.59
2023-04-02T06:40:58.256Z,75.44
2023-04-02T06:43:27.107Z,75.18
2023-04-02T06:45:54.803Z,75.36
2023-04-02T06:48:22.471Z,75.37
2023-04-02T06:50:50.199Z,75.54
2023-04-02T06:53:17.959Z,75.03
2023-04-02T06:55:45.629Z,75.22
2023-04-02T06:58:13.293Z,74.67
2023-04-02T07:00:41.161Z,74.42
2023-04-02T07:03:08.962Z,74.89
2023-04-02T07:05:37.138Z,74.62
2023-04-02T07:08:05.153Z,74.59
2023-04-02T07:10:32.814Z,74.49
2023-04-02T07:13:02.774Z,74.35
2023-04-02T07:15:30.598Z,74.53
2023-04-02T07:17:59.441Z,74.32
2023-04-02T07:20:27.459Z,74.01
2023-04-02T07:22:55.156Z,73.69
2023-04-02T07:25:22.877Z,73.83
2023-04-02T07:27:50.857Z,73.86
2023-04-02T07:30:18.629Z,73.60
2023-04-02T07:32:46.597Z,73.71
2023-04-02T07:35:14.343Z,73.47
2023-04-02T07:37:42.107Z,73.67
2023-04-02T07:40:09.879Z,73.51
2023-04-02T07:42:37.944Z,73.38
2023-04-02T07:45:06.176Z,73.33
2023-04-02T07:47:34.096Z,73.09
2023-04-02T07:50:01.858Z,73.02
2023-04-02T07:52:29.615Z,72.90
2023-04-02T07:54:57.381Z,72.90
2023-04-02T07:57:25.110Z,72.65
2023-04-02T07:59:55.779Z,72.81
2023-04-02T08:02:23.656Z,72.85
2023-04-02T08:04:53.565Z,72.72
2023-04-02T08:07:22.156Z,72.58
2023-04-02T08:09:49.912Z,71.83
2023-04-02T08:12:17.567Z,71.97
2023-04-02T08:14:45.228Z,71.43
2023-04-02T08:17:12.896Z,71.44
2023-04-02T08:19:52.014Z,71.71
2023-04-02T08:22:22.344Z,71.80
2023-04-02T08:24:50.019Z,71.74
2023-04-02T08:27:17.875Z,71.52
2023-04-02T08:29:45.740Z,71.24
2023-04-02T08:32:13.415Z,71.21
2023-04-02T08:34:41.374Z,71.07
2023-04-02T08:37:09.033Z,71.62
2023-04-02T08:39:36.693Z,71.81
2023-04-02T08:42:04.561Z,71.68
2023-04-02T08:44:32.590Z,71.52
2023-04-02T08:47:01.794Z,71.09
2023-04-02T08:49:29.695Z,71.20
2023-04-02T08:51:57.468Z,71.12
2023-04-02T08:54:25.429Z,71.26
2023-04-02T08:56:53.246Z,71.41
2023-04-02T08:59:20.977Z,71.14
2023-04-02T09:01:48.734Z,71.01
2023-04-02T09:04:16.591Z,71.36
2023-04-02T09:06:44.344Z,71.44
2023-04-02T09:09:12.118Z,71.37
2023-04-02T09:11:39.779Z,71.28
2023-04-02T09:14:07.539Z,71.03
2023-04-02T09:16:35.302Z,70.57
2023-04-02T09:19:02.963Z,70.46
2023-04-02T09:21:30.629Z,70.43
2023-04-02T09:23:58.401Z,70.78
2023-04-02T09:26:27.393Z,70.74
2023-04-02T09:28:55.048Z,71.59
2023-04-02T09:31:22.781Z,71.36
2023-04-02T09:33:50.960Z,71.43
2023-04-02T09:36:18.732Z,71.28
2023-04-02T09:38:46.520Z,71.40
2023-04-02T09:41:14.192Z,71.36
2023-04-02T09:43:41.945Z,71.68
2023-04-02T09:46:09.845Z,71.40
2023-04-02T09:48:39.544Z,71.62
2023-04-02T09:51:07.383Z,71.58
2023-04-02T09:53:35.049Z,71.78
2023-04-02T09:56:02.714Z,71.85
2023-04-02T09:58:30.469Z,71.79
2023-04-02T10:00:58.156Z,71.91
2023-04-02T10:03:26.402Z,71.62
2023-04-02T10:05:54.068Z,70.99
2023-04-02T10:08:21.937Z,71.19
2023-04-02T10:10:49.804Z,71.01
2023-04-02T10:13:17.459Z,71.18
2023-04-02T10:15:45.122Z,71.10
2023-04-02T10:18:12.819Z,71.53
2023-04-02T10:20:50.459Z,71.30
2023-04-02T10:23:18.554Z,71.47
2023-04-02T10:25:46.210Z,71.18
2023-04-02T10:28:13.990Z,71.18
2023-04-02T10:30:42.516Z,70.75
2023-04-02T10:33:10.364Z,71.03
2023-04-02T10:35:38.403Z,71.17
2023-04-02T10:38:07.499Z,71.11
2023-04-02T10:40:35.361Z,71.47
2023-04-02T10:43:03.535Z,71.86
2023-04-02T10:45:31.712Z,71.29
2023-04-02T10:47:59.494Z,71.69
2023-04-02T10:50:28.259Z,71.70
2023-04-02T10:52:56.596Z,71.76
2023-04-02T10:55:24.505Z,71.52
2023-04-02T10:57:52.175Z,71.41
2023-04-02T11:00:19.937Z,71.75
2023-04-02T11:02:47.838Z,71.83
2023-04-02T11:05:15.870Z,71.82
2023-04-02T11:07:43.944Z,71.79
2023-04-02T11:10:11.917Z,71.92
2023-04-02T11:12:41.685Z,71.59
2023-04-02T11:15:09.790Z,71.94
2023-04-02T11:17:37.977Z,72.03
2023-04-02T11:20:06.241Z,71.66
2023-04-02T11:22:34.519Z,71.89
2023-04-02T11:25:02.182Z,72.30
2023-04-02T11:27:30.156Z,72.43
2023-04-02T11:29:58.637Z,73.07
2023-04-02T11:32:27.764Z,73.70
2023-04-02T11:35:05.187Z,74.01
2023-04-02T11:37:34.009Z,74.66
2023-04-02T11:40:01.786Z,75.04
2023-04-02T11:42:32.045Z,75.46
2023-04-02T11:45:00.062Z,75.95
2023-04-02T11:47:27.963Z,76.30
2023-04-02T11:49:56.342Z,76.54
2023-04-02T11:52:24.579Z,76.56
2023-04-02T11:54:52.360Z,76.50
2023-04-02T11:57:21.587Z,76.72
2023-04-02T11:59:49.613Z,76.43
2023-04-02T12:02:17.512Z,76.45
2023-04-02T12:04:45.679Z,76.60
2023-04-02T12:07:13.416Z,76.77
2023-04-02T12:09:41.496Z,76.78
2023-04-02T12:12:09.353Z,76.75
2023-04-02T12:14:37.093Z,76.96
2023-04-02T12:17:06.272Z,77.05
2023-04-02T12:19:35.715Z,77.02
2023-04-02T12:22:03.391Z,77.21
2023-04-02T12:24:31.656Z,77.40
2023-04-02T12:26:59.418Z,76.95
2023-04-02T12:29:27.298Z,76.30
2023-04-02T12:31:55.049Z,76.73
2023-04-02T12:34:22.827Z,76.22
2023-04-02T12:36:51.600Z,76.23
2023-04-02T12:39:19.469Z,76.37
2023-04-02T12:41:47.640Z,76.20
2023-04-02T12:44:18.578Z,76.51
2023-04-02T12:46:46.247Z,76.57
2023-04-02T12:49:13.907Z,76.64
2023-04-02T12:51:41.671Z,76.46
2023-04-02T12:54:09.432Z,76.08
2023-04-02T12:56:37.296Z,76.71
2023-04-02T12:59:05.069Z,76.50
2023-04-02T13:01:34.191Z,76.56
2023-04-02T13:04:02.058Z,77.19
2023-04-02T13:06:31.046Z,77.28
2023-04-02T13:08:58.709Z,77.18
2023-04-02T13:11:26.852Z,76.91
2023-04-02T13:13:54.618Z,77.19
2023-04-02T13:16:22.454Z,76.85
2023-04-02T13:18:50.258Z,76.60
2023-04-02T13:21:19.342Z,76.97
2023-04-02T13:23:47.020Z,77.65
2023-04-02T13:26:14.875Z,77.70
2023-04-02T13:28:42.535Z,77.77
2023-04-02T13:31:10.196Z,77.67
2023-04-02T13:33:37.960Z,78.13
2023-04-02T13:36:06.114Z,78.28
2023-04-02T13:38:33.801Z,78.13
2023-04-02T13:41:01.667Z,78.50
2023-04-02T13:43:29.326Z,78.12
2023-04-02T13:45:57.870Z,78.09
2023-04-02T13:48:28.845Z,78.46
2023-04-02T13:50:56.622Z,78.77
2023-04-02T13:53:24.371Z,78.78
2023-04-02T13:55:52.867Z,79.28
2023-04-02T13:58:20.634Z,78.63
2023-04-02T14:00:48.422Z,78.63
2023-04-02T14:03:16.761Z,78.91
2023-04-02T14:05:44.425Z,79.08
2023-04-02T14:08:12.084Z,79.55
2023-04-02T14:10:39.753Z,79.40
2023-04-02T14:13:07.510Z,79.55
2023-04-02T14:15:35.367Z,79.73
2023-04-02T14:18:03.448Z,79.90
2023-04-02T14:20:31.334Z,79.85
2023-04-02T14:22:59.089Z,79.63
2023-04-02T14:25:26.744Z,79.70
2023-04-02T14:27:54.509Z,79.82
2023-04-02T14:30:22.168Z,79.99
2023-04-02T14:32:49.901Z,79.99
2023-04-02T14:35:17.694Z,79.91
2023-04-02T14:37:45.663Z,80.51
2023-04-02T14:40:13.325Z,80.50
2023-04-02T14:42:41.192Z,80.42
2023-04-02T14:45:08.851Z,80.40
2023-04-02T14:47:36.842Z,80.43
2023-04-02T14:50:04.685Z,80.27
2023-04-02T14:52:32.347Z,80.36
2023-04-02T14:55:00.009Z,80.34
2023-04-02T14:57:27.957Z,80.59
2023-04-02T14:59:55.946Z,80.70
2023-04-02T15:02:23.667Z,80.60
2023-04-02T15:04:51.577Z,80.52
2023-04-02T15:07:19.865Z,80.40
2023-04-02T15:09:47.616Z,80.42
2023-04-02T15:12:15.584Z,80.47
2023-04-02T15:14:43.219Z,80.79
2023-04-02T15:17:10.909Z,80.67
2023-04-02T15:19:38.678Z,80.89
2023-04-02T15:22:09.111Z,80.15
2023-04-02T15:24:37.375Z,80.30
2023-04-02T15:27:09.342Z,80.38
2023-04-02T15:29:39.771Z,80.29
2023-04-02T15:32:07.424Z,79.87
2023-04-02T15:34:35.084Z,80.10
2023-04-02T15:37:02.852Z,79.52
2023-04-02T15:39:30.932Z,80.09
2023-04-02T15:41:58.687Z,79.98
2023-04-02T15:44:26.349Z,79.84
2023-04-02T15:46:55.652Z,79.75
2023-04-02T15:49:23.513Z,79.79
2023-04-02T15:51:51.176Z,80.26
2023-04-02T15:54:18.843Z,79.24
2023-04-02T15:56:46.503Z,79.50
2023-04-02T15:59:14.164Z,79.25
2023-04-02T16:01:42.027Z,79.10
2023-04-02T16:04:09.745Z,79.43
2023-04-02T16:06:37.564Z,79.36
2023-04-02T16:09:05.223Z,78.97
2023-04-02T16:11:33.815Z,79.00
2023-04-02T16:14:01.977Z,79.37
2023-04-02T16:16:29.803Z,79.35
2023-04-02T16:18:57.816Z,79.27
2023-04-02T16:21:25.885Z,79.12
2023-04-02T16:23:53.788Z,78.91
2023-04-02T16:26:22.131Z,79.03
2023-04-02T16:28:50.134Z,79.17
2023-04-02T16:31:17.990Z,79.43
2023-04-02T16:33:45.831Z,79.48
2023-04-02T16:36:13.518Z,79.80
2023-04-02T16:38:41.259Z,79.58
2023-04-02T16:41:09.296Z,79.41
2023-04-02T16:43:37.142Z,79.50
2023-04-02T16:46:05.061Z,79.53
2023-04-02T16:48:33.870Z,79.51
2023-04-02T16:51:01.615Z,79.52
2023-04-02T16:53:29.379Z,79.41
2023-04-02T16:55:57.042Z,79.43
2023-04-02T16:58:24.805Z,79.18
2023-04-02T17:00:52.570Z,79.23
2023-04-02T17:03:20.505Z,78.97
2023-04-02T17:05:48.407Z,78.90
2023-04-02T17:08:16.170Z,79.06
2023-04-02T17:10:43.830Z,79.21
2023-04-02T17:13:12.102Z,79.39
2023-04-02T17:15:39.994Z,79.48
2023-04-02T17:18:07.730Z,79.40
2023-04-02T17:20:35.574Z,79.03
2023-04-02T17:23:04.735Z,79.31
2023-04-02T17:25:34.084Z,79.42
2023-04-02T17:28:01.758Z,79.30
2023-04-02T17:30:29.419Z,79.34
2023-04-02T17:32:57.131Z,79.20
2023-04-02T17:35:25.170Z,79.14
2023-04-02T17:37:53.049Z,79.16
2023-04-02T17:40:20.888Z,79.00
2023-04-02T17:42:48.653Z,79.04
2023-04-02T17:45:16.416Z,79.02
2023-04-02T17:47:44.211Z,78.79
2023-04-02T17:50:11.958Z,78.40
2023-04-02T17:52:39.721Z,78.57
2023-04-02T17:55:07.482Z,78.26
2023-04-02T17:57:35.248Z,78.28
2023-04-02T18:00:03.833Z,78.45
2023-04-02T18:02:31.660Z,78.53
2023-04-02T18:04:59.553Z,78.45
2023-04-02T18:07:27.215Z,78.27
2023-04-02T18:09:54.875Z,78.45
2023-04-02T18:12:22.555Z,78.20
2023-04-02T18:14:51.027Z,78.39
2023-04-02T18:17:18.807Z,78.46
2023-04-02T18:19:46.548Z,78.39
2023-04-02T18:22:14.214Z,78.26
2023-04-02T18:24:42.816Z,78.29
2023-04-02T18:27:10.557Z,78.53
2023-04-02T18:29:38.331Z,78.51
2023-04-02T18:32:06.083Z,78.39
2023-04-02T18:34:33.753Z,78.36
2023-04-02T18:37:01.509Z,78.42
2023-04-02T18:39:30.334Z,78.35
2023-04-02T18:41:58.876Z,78.41
2023-04-02T18:44:26.540Z,78.46
2023-04-02T18:46:54.315Z,78.38
2023-04-02T18:49:22.175Z,78.49
2023-04-02T18:51:49.832Z,78.48
2023-04-02T18:54:17.488Z,78.53
2023-04-02T18:56:45.153Z,78.66
2023-04-02T18:59:12.822Z,78.62
2023-04-02T19:04:08.612Z,78.60
2023-04-02T19:06:36.936Z,78.56
2023-04-02T19:09:05.314Z,78.58
2023-04-02T19:11:33.072Z,78.21
2023-04-02T19:14:01.481Z,78.34
2023-04-02T19:16:29.291Z,78.26
2023-04-02T19:18:57.376Z,78.08
2023-04-02T19:21:25.049Z,78.10
2023-04-02T19:23:52.814Z,78.21
2023-04-02T19:26:22.216Z,78.14
2023-04-02T19:28:50.287Z,78.29
2023-04-02T19:31:18.133Z,78.45
2023-04-02T19:33:46.041Z,78.39
2023-04-02T19:36:13.824Z,78.32
2023-04-02T19:38:41.661Z,78.46
2023-04-02T19:41:09.322Z,78.72
2023-04-02T19:43:36.971Z,78.58
2023-04-02T19:46:04.638Z,78.57
2023-04-02T19:48:32.405Z,78.56
2023-04-02T19:51:00.171Z,78.48
2023-04-02T19:53:27.926Z,78.57
2023-04-02T19:55:57.633Z,78.48
2023-04-02T19:58:25.300Z,78.25
2023-04-02T20:00:53.074Z,78.33
2023-04-02T20:03:20.724Z,78.34
2023-04-02T20:05:48.395Z,78.52
2023-04-02T20:08:16.257Z,78.71
2023-04-02T20:10:43.913Z,78.68
2023-04-02T20:13:11.781Z,78.44
2023-04-02T20:15:39.453Z,78.45
2023-04-02T20:18:07.231Z,78.37
2023-04-02T20:20:35.286Z,78.46
2023-04-02T20:23:03.458Z,78.51
2023-04-02T20:25:31.219Z,78.79
2023-04-02T20:28:01.038Z,78.77
2023-04-02T20:30:28.697Z,78.81
2023-04-02T20:32:56.628Z,78.84
2023-04-02T20:35:24.494Z,79.09
2023-04-02T20:37:52.299Z,78.71
2023-04-02T20:40:20.065Z,79.06
2023-04-02T20:42:47.825Z,79.00
2023-04-02T20:45:16.100Z,79.19
2023-04-02T20:47:43.791Z,79.19
2023-04-02T20:50:11.633Z,79.10
2023-04-02T20:52:39.393Z,79.35
2023-04-02T20:55:07.068Z,79.38
2023-04-02T20:57:34.783Z,79.12
2023-04-02T21:00:05.343Z,79.35
2023-04-02T21:02:33.030Z,79.30
2023-04-02T21:05:00.893Z,79.25
2023-04-02T21:07:28.746Z,79.25
2023-04-02T21:09:56.618Z,79.19
2023-04-02T21:12:25.194Z,79.12
2023-04-02T21:14:57.866Z,79.01
2023-04-02T21:17:26.265Z,79.17
2023-04-02T21:19:54.015Z,79.51
2023-04-02T21:22:21.776Z,79.28
2023-04-02T21:24:49.541Z,79.53
2023-04-02T21:27:17.509Z,79.64
2023-04-02T21:29:45.268Z,79.33
2023-04-02T21:32:21.278Z,79.36
2023-04-02T21:34:49.606Z,79.68
2023-04-02T21:37:17.265Z,79.99
2023-04-02T21:39:44.925Z,79.87
2023-04-02T21:42:14.121Z,79.92
2023-04-02T21:44:41.886Z,80.02
2023-04-02T21:47:09.688Z,79.85
2023-04-02T21:49:37.516Z,79.67
2023-04-02T21:52:05.176Z,80.00
2023-04-02T21:54:32.962Z,80.32
2023-04-02T21:57:00.826Z,80.42
2023-04-02T21:59:28.574Z,80.70
2023-04-02T22:01:56.363Z,80.57
2023-04-02T22:04:24.172Z,80.42
2023-04-02T22:06:52.384Z,80.29
2023-04-02T22:09:20.047Z,80.06
2023-04-02T22:11:47.808Z,79.99
2023-04-02T22:14:15.463Z,80.06
2023-04-02T22:16:43.370Z,80.27
2023-04-02T22:19:11.304Z,79.70
2023-04-02T22:21:39.064Z,79.64
2023-04-02T22:24:06.838Z,79.75
2023-04-02T22:26:34.591Z,79.93
2023-04-02T22:29:02.253Z,80.01
2023-04-02T22:31:30.067Z,79.96
2023-04-02T22:33:57.898Z,79.66
2023-04-02T22:36:25.654Z,79.74
2023-04-02T22:38:53.269Z,79.94
2023-04-02T22:41:21.899Z,80.00
2023-04-02T22:43:49.668Z,80.18
2023-04-02T22:46:17.337Z,80.08
2023-04-02T22:48:45.078Z,79.75
2023-04-02T22:51:12.719Z,80.14
2023-04-02T22:53:40.505Z,80.26
2023-04-02T22:56:08.165Z,80.20
2023-04-02T22:58:35.830Z,80.21
2023-04-02T23:01:03.486Z,80.61
2023-04-02T23:03:31.463Z,80.15
2023-04-02T23:05:59.122Z,80.06
2023-04-02T23:08:26.788Z,80.35
2023-04-02T23:10:54.445Z,80.08
2023-04-02T23:13:22.120Z,80.33
2023-04-02T23:15:49.847Z,80.24
2023-04-02T23:18:17.637Z,80.40
2023-04-02T23:20:45.719Z,79.95
2023-04-02T23:23:13.334Z,80.13
2023-04-02T23:25:41.541Z,80.47
2023-04-02T23:28:09.205Z,80.31
2023-04-02T23:30:37.480Z,80.67
2023-04-02T23:33:05.829Z,80.76
2023-04-02T23:35:33.737Z,80.52
2023-04-02T23:38:01.597Z,80.56
2023-04-02T23:40:29.254Z,80.55
2023-04-02T23:42:56.920Z,80.34
2023-04-02T23:45:24.688Z,80.46
2023-04-02T23:47:52.359Z,81.02
2023-04-02T23:50:20.207Z,80.80
2023-04-02T23:52:47.870Z,80.79
2023-04-02T23:55:15.633Z,80.85
2023-04-02T23:57:43.294Z,81.19
